Main page
METAR-TAF:

METAR-TAF

Airports :

Kangerlussuaq Airport

Kangerlussuaq, Greenland

latitude: 67-01N, longitude: 050-42W, elevation: 50 m

Current weather observation

The report was made 11 minutes ago, at 01:50 UTC
Wind 8 kt from the Northeast
Temperature -27°C
Humidity 75%
Pressure 1006 hPa
Visibility 10 km or more

METAR: BGSF 090150Z AUTO 05008KT 9999NDV NCD M27/M30 Q1006

Time: 23:01 (02:01 UTC)

Forecast

The report was made 8 hours and 56 minutes ago, at 17:05 UTC
Forecast valid from 07 at 18 UTC to 07 at 24 UTC
Wind 8 kt from the East/Northeast
Visibility 10 km or more
Scattered clouds at a height of 1800 ft
Broken clouds at a height of 5000 ft
Temporary
from 07 at 18 UTC to 07 at 24 UTC
Broken clouds at a height of 2500 ft
light snow showers

TAF: BGSF 071705Z 0718/0724 06008KT 9999 SCT018 BKN050 TEMPO 0718/0724 -SHSN BKN025

Weather observations and forecasts of more than 4000 airports (METAR and TAF reports).

The available stations are represented by yellow and red dots on the map.

Hover mouse over dot to see the name of the station.

Then click to see weather observations and forecasts.

To change the map : click on the green buttons with a black cross to zoom in, on the green button with a dash to zoom out, or on the green arrows for adjacent maps.


METAR-TAF: